Portada
METAR-TAF:

METAR-TAF

Aeroports :

Gaya, Índia

latitud: 24-44-40N, longitud: 84-57-04E, altitud: 116 m

Observació

L'informe es va fer fa 58 minuts, a les 17:00 UTC
Vent 4 kt del Est
Temperatura 28°C
Humitat 66%
Pressió 1009 hPa
Visibilitat: 3000 m
Núvols disperses a una alçada de 2000 ft
calitja

METAR: VEGY 231700Z 08004KT 3000 HZ SCT020 28/21 Q1009

Hora: 23:28 (17:58 UTC)

Pronòstic

L'informe es va fer fa 3 hores i 58 minuts, a les 14:00 UTC
Pronòstic vàlid del 23 a les 15 UTC al 23 a les 24 UTC
Vent 6 kt del Est
Visibilitat: 3000 m
Escasses núvols a una alçada de 2000 ft
Núvols disperses a una alçada de 10000 ft
calitja

TAF: VEGY 231400Z 2315/2324 10006KT 3000 HZ FEW020 SCT100

Observacions i pronòstics meteorològics de més de 4000 aeroports (METAR i TAF).

Les estacions disponibles són els punts grocs i vermells al mapa.

Posi el ratolí al punt desitjat per veure el nom de l'estació.

Feu clic per veure les observacions i els pronòstics meteorològics.

Per canviar el mapa: feu clic els botons verds amb una creu de color negre per apropar; al botó verd amb un guió per allunyar la imatge; o en les fletxes verdes per a mapes adjacents.


METAR-TAF: